sensor_id;sensor_type;location;lat;lon;timestamp;P1;durP1;ratioP1;P2;durP2;ratioP2
45382;SDS011;42455;51.660;5.824;2023-06-14T00:03:53;6.0;;;5.0;;
45382;SDS011;42455;51.660;5.824;2023-06-14T00:08:59;7.0;;;5.0;;
45382;SDS011;42455;51.660;5.824;2023-06-14T00:14:05;6.0;;;5.0;;
45382;SDS011;42455;51.660;5.824;2023-06-14T00:19:11;6.0;;;5.0;;
45382;SDS011;42455;51.660;5.824;2023-06-14T00:24:17;6.0;;;4.0;;
45382;SDS011;42455;51.660;5.824;2023-06-14T00:29:22;5.0;;;4.0;;
45382;SDS011;42455;51.660;5.824;2023-06-14T00:34:29;7.0;;;4.0;;
45382;SDS011;42455;51.660;5.824;2023-06-14T00:39:35;6.0;;;5.0;;
45382;SDS011;42455;51.660;5.824;2023-06-14T00:44:41;6.0;;;4.0;;
45382;SDS011;42455;51.660;5.824;2023-06-14T00:49:48;6.0;;;4.0;;
45382;SDS011;42455;51.660;5.824;2023-06-14T00:54:54;5.0;;;4.0;;
45382;SDS011;42455;51.660;5.824;2023-06-14T01:00:00;5.0;;;4.0;;
45382;SDS011;42455;51.660;5.824;2023-06-14T01:05:06;5.0;;;4.0;;
45382;SDS011;42455;51.660;5.824;2023-06-14T01:10:29;4.0;;;4.0;;
45382;SDS011;42455;51.660;5.824;2023-06-14T01:15:18;6.0;;;4.0;;
45382;SDS011;42455;51.660;5.824;2023-06-14T01:20:28;6.0;;;4.0;;
45382;SDS011;42455;51.660;5.824;2023-06-14T01:25:31;6.0;;;4.0;;
45382;SDS011;42455;51.660;5.824;2023-06-14T01:30:37;4.0;;;4.0;;
45382;SDS011;42455;51.660;5.824;2023-06-14T01:35:46;4.0;;;4.0;;
45382;SDS011;42455;51.660;5.824;2023-06-14T01:40:49;5.0;;;4.0;;
45382;SDS011;42455;51.660;5.824;2023-06-14T01:45:56;4.0;;;4.0;;
45382;SDS011;42455;51.660;5.824;2023-06-14T01:51:02;6.5;;;4.0;;
45382;SDS011;42455;51.660;5.824;2023-06-14T01:56:08;4.0;;;4.0;;
45382;SDS011;42455;51.660;5.824;2023-06-14T02:01:14;6.0;;;4.0;;
45382;SDS011;42455;51.660;5.824;2023-06-14T02:06:21;4.0;;;4.0;;
45382;SDS011;42455;51.660;5.824;2023-06-14T02:11:27;5.0;;;4.0;;
45382;SDS011;42455;51.660;5.824;2023-06-14T02:16:33;6.0;;;4.0;;
45382;SDS011;42455;51.660;5.824;2023-06-14T02:21:39;5.0;;;4.0;;
45382;SDS011;42455;51.660;5.824;2023-06-14T02:26:45;6.0;;;4.0;;
45382;SDS011;42455;51.660;5.824;2023-06-14T02:31:51;5.0;;;4.0;;
45382;SDS011;42455;51.660;5.824;2023-06-14T02:36:58;6.0;;;4.0;;
45382;SDS011;42455;51.660;5.824;2023-06-14T02:42:04;4.0;;;4.0;;
45382;SDS011;42455;51.660;5.824;2023-06-14T02:47:10;5.0;;;4.0;;
45382;SDS011;42455;51.660;5.824;2023-06-14T02:52:16;6.0;;;4.0;;
45382;SDS011;42455;51.660;5.824;2023-06-14T02:57:23;6.5;;;4.0;;
45382;SDS011;42455;51.660;5.824;2023-06-14T03:02:29;5.0;;;4.0;;
45382;SDS011;42455;51.660;5.824;2023-06-14T03:07:35;5.0;;;4.0;;
45382;SDS011;42455;51.660;5.824;2023-06-14T03:12:41;5.0;;;4.0;;
45382;SDS011;42455;51.660;5.824;2023-06-14T03:17:47;6.0;;;4.0;;
45382;SDS011;42455;51.660;5.824;2023-06-14T03:22:54;7.0;;;4.0;;
45382;SDS011;42455;51.660;5.824;2023-06-14T03:28:00;6.0;;;4.0;;
45382;SDS011;42455;51.660;5.824;2023-06-14T03:33:06;5.0;;;4.0;;
45382;SDS011;42455;51.660;5.824;2023-06-14T03:38:12;5.0;;;4.0;;
45382;SDS011;42455;51.660;5.824;2023-06-14T03:43:18;7.0;;;4.0;;
45382;SDS011;42455;51.660;5.824;2023-06-14T03:48:25;5.0;;;4.0;;
45382;SDS011;42455;51.660;5.824;2023-06-14T03:53:31;6.0;;;4.0;;
45382;SDS011;42455;51.660;5.824;2023-06-14T03:58:37;5.0;;;4.0;;
45382;SDS011;42455;51.660;5.824;2023-06-14T04:03:43;7.0;;;4.0;;
45382;SDS011;42455;51.660;5.824;2023-06-14T04:08:49;4.0;;;4.0;;
45382;SDS011;42455;51.660;5.824;2023-06-14T04:13:56;5.0;;;4.0;;
45382;SDS011;42455;51.660;5.824;2023-06-14T04:19:02;5.0;;;4.0;;
45382;SDS011;42455;51.660;5.824;2023-06-14T04:24:08;5.0;;;3.0;;
45382;SDS011;42455;51.660;5.824;2023-06-14T04:29:14;5.0;;;4.0;;
45382;SDS011;42455;51.660;5.824;2023-06-14T04:34:21;5.0;;;3.0;;
45382;SDS011;42455;51.660;5.824;2023-06-14T04:39:27;5.0;;;4.0;;
45382;SDS011;42455;51.660;5.824;2023-06-14T04:44:33;4.0;;;3.0;;
45382;SDS011;42455;51.660;5.824;2023-06-14T04:49:39;4.0;;;3.0;;
45382;SDS011;42455;51.660;5.824;2023-06-14T04:54:45;4.0;;;3.0;;
45382;SDS011;42455;51.660;5.824;2023-06-14T04:59:52;4.0;;;3.0;;
45382;SDS011;42455;51.660;5.824;2023-06-14T05:04:58;6.0;;;3.0;;
45382;SDS011;42455;51.660;5.824;2023-06-14T05:10:05;5.0;;;3.0;;
45382;SDS011;42455;51.660;5.824;2023-06-14T05:15:10;4.0;;;3.0;;
45382;SDS011;42455;51.660;5.824;2023-06-14T05:20:16;4.0;;;3.0;;
45382;SDS011;42455;51.660;5.824;2023-06-14T05:25:23;5.0;;;3.0;;
45382;SDS011;42455;51.660;5.824;2023-06-14T05:30:29;5.0;;;3.0;;
45382;SDS011;42455;51.660;5.824;2023-06-14T05:35:35;5.0;;;3.0;;
45382;SDS011;42455;51.660;5.824;2023-06-14T05:40:41;6.0;;;3.0;;
45382;SDS011;42455;51.660;5.824;2023-06-14T05:45:48;6.0;;;3.0;;
45382;SDS011;42455;51.660;5.824;2023-06-14T05:50:54;6.5;;;3.0;;
45382;SDS011;42455;51.660;5.824;2023-06-14T05:56:00;5.0;;;3.0;;
45382;SDS011;42455;51.660;5.824;2023-06-14T06:01:05;6.0;;;3.0;;
45382;SDS011;42455;51.660;5.824;2023-06-14T06:06:11;4.0;;;3.0;;
45382;SDS011;42455;51.660;5.824;2023-06-14T06:11:18;4.0;;;3.0;;
45382;SDS011;42455;51.660;5.824;2023-06-14T06:16:24;5.0;;;3.0;;
45382;SDS011;42455;51.660;5.824;2023-06-14T06:21:30;5.0;;;3.0;;
45382;SDS011;42455;51.660;5.824;2023-06-14T06:26:36;3.0;;;3.0;;
45382;SDS011;42455;51.660;5.824;2023-06-14T06:31:42;4.5;;;3.0;;
45382;SDS011;42455;51.660;5.824;2023-06-14T06:36:49;8.5;;;3.0;;
45382;SDS011;42455;51.660;5.824;2023-06-14T06:41:55;5.0;;;3.0;;
45382;SDS011;42455;51.660;5.824;2023-06-14T06:47:01;7.5;;;3.0;;
45382;SDS011;42455;51.660;5.824;2023-06-14T06:52:08;4.0;;;3.0;;
45382;SDS011;42455;51.660;5.824;2023-06-14T06:57:13;4.0;;;3.0;;
45382;SDS011;42455;51.660;5.824;2023-06-14T07:02:20;3.5;;;3.0;;
45382;SDS011;42455;51.660;5.824;2023-06-14T07:07:26;4.0;;;3.0;;
45382;SDS011;42455;51.660;5.824;2023-06-14T07:12:32;4.0;;;3.0;;
45382;SDS011;42455;51.660;5.824;2023-06-14T07:17:38;4.0;;;3.0;;
45382;SDS011;42455;51.660;5.824;2023-06-14T07:22:44;5.0;;;2.0;;
45382;SDS011;42455;51.660;5.824;2023-06-14T07:27:51;5.0;;;3.0;;
45382;SDS011;42455;51.660;5.824;2023-06-14T07:32:57;3.5;;;2.0;;
45382;SDS011;42455;51.660;5.824;2023-06-14T07:38:03;3.0;;;3.0;;
45382;SDS011;42455;51.660;5.824;2023-06-14T07:43:09;6.0;;;3.0;;
45382;SDS011;42455;51.660;5.824;2023-06-14T07:48:16;3.0;;;2.0;;
45382;SDS011;42455;51.660;5.824;2023-06-14T07:53:22;3.0;;;2.0;;
45382;SDS011;42455;51.660;5.824;2023-06-14T07:58:28;2.0;;;2.0;;
45382;SDS011;42455;51.660;5.824;2023-06-14T08:03:34;3.0;;;2.0;;
45382;SDS011;42455;51.660;5.824;2023-06-14T08:08:40;3.0;;;1.0;;
45382;SDS011;42455;51.660;5.824;2023-06-14T08:13:47;4.0;;;2.0;;
45382;SDS011;42455;51.660;5.824;2023-06-14T08:18:53;1.0;;;1.0;;
45382;SDS011;42455;51.660;5.824;2023-06-14T08:23:59;2.0;;;1.0;;
45382;SDS011;42455;51.660;5.824;2023-06-14T08:29:05;10.0;;;2.0;;
45382;SDS011;42455;51.660;5.824;2023-06-14T08:34:11;2.0;;;1.0;;
45382;SDS011;42455;51.660;5.824;2023-06-14T08:39:18;1.5;;;1.0;;
45382;SDS011;42455;51.660;5.824;2023-06-14T08:44:24;1.0;;;1.0;;
45382;SDS011;42455;51.660;5.824;2023-06-14T08:49:30;1.0;;;1.0;;
45382;SDS011;42455;51.660;5.824;2023-06-14T08:54:36;4.0;;;1.0;;
45382;SDS011;42455;51.660;5.824;2023-06-14T08:59:47;3.0;;;1.0;;
45382;SDS011;42455;51.660;5.824;2023-06-14T09:04:49;4.0;;;1.0;;
45382;SDS011;42455;51.660;5.824;2023-06-14T09:10:07;2.0;;;1.0;;
45382;SDS011;42455;51.660;5.824;2023-06-14T09:15:01;2.0;;;1.0;;
45382;SDS011;42455;51.660;5.824;2023-06-14T09:20:08;2.0;;;1.0;;
45382;SDS011;42455;51.660;5.824;2023-06-14T09:25:14;3.0;;;1.0;;
45382;SDS011;42455;51.660;5.824;2023-06-14T09:30:20;3.0;;;1.0;;
45382;SDS011;42455;51.660;5.824;2023-06-14T09:35:26;2.0;;;1.0;;
45382;SDS011;42455;51.660;5.824;2023-06-14T09:40:33;2.0;;;1.0;;
45382;SDS011;42455;51.660;5.824;2023-06-14T09:45:39;1.5;;;1.0;;
45382;SDS011;42455;51.660;5.824;2023-06-14T09:50:45;2.0;;;2.0;;
45382;SDS011;42455;51.660;5.824;2023-06-14T09:55:52;2.0;;;1.0;;
45382;SDS011;42455;51.660;5.824;2023-06-14T10:00:57;2.5;;;2.0;;
45382;SDS011;42455;51.660;5.824;2023-06-14T10:06:03;1.0;;;1.0;;
45382;SDS011;42455;51.660;5.824;2023-06-14T10:11:10;5.0;;;2.0;;
45382;SDS011;42455;51.660;5.824;2023-06-14T10:16:20;2.0;;;1.0;;
45382;SDS011;42455;51.660;5.824;2023-06-14T10:21:23;2.0;;;1.0;;
45382;SDS011;42455;51.660;5.824;2023-06-14T10:26:28;4.0;;;2.0;;
45382;SDS011;42455;51.660;5.824;2023-06-14T10:31:42;4.0;;;1.0;;
45382;SDS011;42455;51.660;5.824;2023-06-14T10:36:41;1.0;;;1.0;;
45382;SDS011;42455;51.660;5.824;2023-06-14T10:41:50;3.0;;;1.0;;
45382;SDS011;42455;51.660;5.824;2023-06-14T10:46:53;2.0;;;1.0;;
45382;SDS011;42455;51.660;5.824;2023-06-14T10:51:59;2.0;;;1.0;;
45382;SDS011;42455;51.660;5.824;2023-06-14T10:57:06;1.0;;;1.0;;
45382;SDS011;42455;51.660;5.824;2023-06-14T11:02:46;1.0;;;1.0;;
45382;SDS011;42455;51.660;5.824;2023-06-14T11:07:40;1.0;;;1.0;;
45382;SDS011;42455;51.660;5.824;2023-06-14T11:12:26;2.0;;;1.0;;
45382;SDS011;42455;51.660;5.824;2023-06-14T11:17:30;2.0;;;1.0;;
45382;SDS011;42455;51.660;5.824;2023-06-14T11:22:40;2.0;;;1.0;;
45382;SDS011;42455;51.660;5.824;2023-06-14T11:27:44;1.5;;;1.0;;
45382;SDS011;42455;51.660;5.824;2023-06-14T11:32:48;1.0;;;1.0;;
45382;SDS011;42455;51.660;5.824;2023-06-14T11:37:55;2.0;;;1.0;;
45382;SDS011;42455;51.660;5.824;2023-06-14T11:43:02;3.0;;;1.0;;
45382;SDS011;42455;51.660;5.824;2023-06-14T11:48:07;2.0;;;1.0;;
45382;SDS011;42455;51.660;5.824;2023-06-14T11:53:13;2.0;;;1.0;;
45382;SDS011;42455;51.660;5.824;2023-06-14T11:58:19;1.0;;;1.0;;
45382;SDS011;42455;51.660;5.824;2023-06-14T12:03:25;1.0;;;1.0;;
45382;SDS011;42455;51.660;5.824;2023-06-14T12:08:32;3.0;;;1.0;;
45382;SDS011;42455;51.660;5.824;2023-06-14T12:13:38;1.0;;;1.0;;
45382;SDS011;42455;51.660;5.824;2023-06-14T12:18:44;1.0;;;1.0;;
45382;SDS011;42455;51.660;5.824;2023-06-14T12:23:50;1.0;;;1.0;;
45382;SDS011;42455;51.660;5.824;2023-06-14T12:28:57;2.0;;;1.0;;
45382;SDS011;42455;51.660;5.824;2023-06-14T12:34:03;2.0;;;1.0;;
45382;SDS011;42455;51.660;5.824;2023-06-14T12:39:09;2.0;;;1.0;;
45382;SDS011;42455;51.660;5.824;2023-06-14T12:44:15;3.0;;;1.0;;
45382;SDS011;42455;51.660;5.824;2023-06-14T12:49:21;1.0;;;1.0;;
45382;SDS011;42455;51.660;5.824;2023-06-14T12:54:28;2.0;;;1.0;;
45382;SDS011;42455;51.660;5.824;2023-06-14T12:59:34;3.0;;;1.0;;
45382;SDS011;42455;51.660;5.824;2023-06-14T13:04:40;3.0;;;1.0;;
45382;SDS011;42455;51.660;5.824;2023-06-14T13:09:46;1.0;;;1.0;;
45382;SDS011;42455;51.660;5.824;2023-06-14T13:14:53;2.0;;;1.0;;
45382;SDS011;42455;51.660;5.824;2023-06-14T13:19:59;2.0;;;1.0;;
45382;SDS011;42455;51.660;5.824;2023-06-14T13:25:05;1.0;;;1.0;;
45382;SDS011;42455;51.660;5.824;2023-06-14T13:30:11;1.0;;;1.0;;
45382;SDS011;42455;51.660;5.824;2023-06-14T13:35:17;1.0;;;1.0;;
45382;SDS011;42455;51.660;5.824;2023-06-14T13:40:24;2.0;;;1.0;;
45382;SDS011;42455;51.660;5.824;2023-06-14T13:45:30;2.0;;;1.0;;
45382;SDS011;42455;51.660;5.824;2023-06-14T13:50:36;1.0;;;1.0;;
45382;SDS011;42455;51.660;5.824;2023-06-14T13:55:42;3.0;;;1.0;;
45382;SDS011;42455;51.660;5.824;2023-06-14T14:00:48;1.0;;;1.0;;
45382;SDS011;42455;51.660;5.824;2023-06-14T14:05:55;1.0;;;1.0;;
45382;SDS011;42455;51.660;5.824;2023-06-14T14:11:01;1.0;;;1.0;;
45382;SDS011;42455;51.660;5.824;2023-06-14T14:16:07;2.0;;;1.0;;
45382;SDS011;42455;51.660;5.824;2023-06-14T14:21:13;2.0;;;1.0;;
45382;SDS011;42455;51.660;5.824;2023-06-14T14:26:20;1.0;;;1.0;;
45382;SDS011;42455;51.660;5.824;2023-06-14T14:31:26;2.5;;;1.0;;
45382;SDS011;42455;51.660;5.824;2023-06-14T14:36:32;1.5;;;1.0;;
45382;SDS011;42455;51.660;5.824;2023-06-14T14:41:38;2.0;;;1.0;;
45382;SDS011;42455;51.660;5.824;2023-06-14T14:46:44;2.0;;;1.0;;
45382;SDS011;42455;51.660;5.824;2023-06-14T14:51:51;1.0;;;1.0;;
45382;SDS011;42455;51.660;5.824;2023-06-14T14:56:57;1.0;;;1.0;;
45382;SDS011;42455;51.660;5.824;2023-06-14T15:02:03;2.0;;;1.0;;
45382;SDS011;42455;51.660;5.824;2023-06-14T15:07:09;1.0;;;1.0;;
45382;SDS011;42455;51.660;5.824;2023-06-14T15:12:15;1.0;;;1.0;;
45382;SDS011;42455;51.660;5.824;2023-06-14T15:17:22;1.0;;;1.0;;
45382;SDS011;42455;51.660;5.824;2023-06-14T15:22:28;1.0;;;1.0;;
45382;SDS011;42455;51.660;5.824;2023-06-14T15:27:34;1.0;;;1.0;;
45382;SDS011;42455;51.660;5.824;2023-06-14T15:32:40;1.0;;;1.0;;
45382;SDS011;42455;51.660;5.824;2023-06-14T15:37:47;1.0;;;1.0;;
45382;SDS011;42455;51.660;5.824;2023-06-14T15:42:53;4.0;;;1.0;;
45382;SDS011;42455;51.660;5.824;2023-06-14T15:47:59;1.0;;;1.0;;
45382;SDS011;42455;51.660;5.824;2023-06-14T15:53:05;1.0;;;1.0;;
45382;SDS011;42455;51.660;5.824;2023-06-14T15:58:11;1.0;;;1.0;;
45382;SDS011;42455;51.660;5.824;2023-06-14T16:03:18;2.0;;;1.0;;
45382;SDS011;42455;51.660;5.824;2023-06-14T16:08:24;3.0;;;1.0;;
45382;SDS011;42455;51.660;5.824;2023-06-14T16:13:30;2.0;;;1.0;;
45382;SDS011;42455;51.660;5.824;2023-06-14T16:18:36;2.0;;;1.0;;
45382;SDS011;42455;51.660;5.824;2023-06-14T16:23:43;2.0;;;1.0;;
45382;SDS011;42455;51.660;5.824;2023-06-14T16:28:49;2.0;;;1.0;;
45382;SDS011;42455;51.660;5.824;2023-06-14T16:33:55;2.5;;;1.0;;
45382;SDS011;42455;51.660;5.824;2023-06-14T16:39:01;2.0;;;1.0;;
45382;SDS011;42455;51.660;5.824;2023-06-14T16:44:07;2.0;;;1.0;;
45382;SDS011;42455;51.660;5.824;2023-06-14T16:49:13;2.0;;;1.0;;
45382;SDS011;42455;51.660;5.824;2023-06-14T16:54:20;1.0;;;1.0;;
45382;SDS011;42455;51.660;5.824;2023-06-14T16:59:26;3.0;;;1.0;;
45382;SDS011;42455;51.660;5.824;2023-06-14T17:04:31;2.0;;;2.0;;
45382;SDS011;42455;51.660;5.824;2023-06-14T17:09:37;2.0;;;1.5;;
45382;SDS011;42455;51.660;5.824;2023-06-14T17:14:44;2.0;;;2.0;;
45382;SDS011;42455;51.660;5.824;2023-06-14T17:19:50;2.0;;;2.0;;
45382;SDS011;42455;51.660;5.824;2023-06-14T17:24:56;2.0;;;2.0;;
45382;SDS011;42455;51.660;5.824;2023-06-14T17:30:02;2.0;;;2.0;;
45382;SDS011;42455;51.660;5.824;2023-06-14T17:35:07;3.0;;;2.0;;
45382;SDS011;42455;51.660;5.824;2023-06-14T17:40:14;2.0;;;2.0;;
45382;SDS011;42455;51.660;5.824;2023-06-14T17:45:20;3.5;;;2.0;;
45382;SDS011;42455;51.660;5.824;2023-06-14T17:50:26;3.0;;;2.0;;
45382;SDS011;42455;51.660;5.824;2023-06-14T17:55:32;2.0;;;2.0;;
45382;SDS011;42455;51.660;5.824;2023-06-14T18:00:38;2.0;;;2.0;;
45382;SDS011;42455;51.660;5.824;2023-06-14T18:05:45;2.0;;;2.0;;
45382;SDS011;42455;51.660;5.824;2023-06-14T18:10:51;2.0;;;2.0;;
45382;SDS011;42455;51.660;5.824;2023-06-14T18:15:57;2.0;;;2.0;;
45382;SDS011;42455;51.660;5.824;2023-06-14T18:21:03;3.0;;;2.0;;
45382;SDS011;42455;51.660;5.824;2023-06-14T18:26:10;2.0;;;2.0;;
45382;SDS011;42455;51.660;5.824;2023-06-14T18:31:16;2.0;;;2.0;;
45382;SDS011;42455;51.660;5.824;2023-06-14T18:36:22;2.0;;;2.0;;
45382;SDS011;42455;51.660;5.824;2023-06-14T18:41:28;2.0;;;2.0;;
45382;SDS011;42455;51.660;5.824;2023-06-14T18:46:34;2.0;;;2.0;;
45382;SDS011;42455;51.660;5.824;2023-06-14T18:51:41;2.0;;;2.0;;
45382;SDS011;42455;51.660;5.824;2023-06-14T18:56:47;2.5;;;2.0;;
45382;SDS011;42455;51.660;5.824;2023-06-14T19:01:53;2.5;;;2.0;;
45382;SDS011;42455;51.660;5.824;2023-06-14T19:06:59;3.0;;;2.0;;
45382;SDS011;42455;51.660;5.824;2023-06-14T19:12:06;2.0;;;2.0;;
45382;SDS011;42455;51.660;5.824;2023-06-14T19:17:12;2.0;;;2.0;;
45382;SDS011;42455;51.660;5.824;2023-06-14T19:22:18;3.0;;;2.0;;
45382;SDS011;42455;51.660;5.824;2023-06-14T19:27:24;2.0;;;2.0;;
45382;SDS011;42455;51.660;5.824;2023-06-14T19:32:30;2.5;;;2.0;;
45382;SDS011;42455;51.660;5.824;2023-06-14T19:37:37;3.0;;;2.0;;
45382;SDS011;42455;51.660;5.824;2023-06-14T19:42:43;2.0;;;2.0;;
45382;SDS011;42455;51.660;5.824;2023-06-14T19:47:49;2.0;;;2.0;;
45382;SDS011;42455;51.660;5.824;2023-06-14T19:52:55;2.0;;;2.0;;
45382;SDS011;42455;51.660;5.824;2023-06-14T19:58:01;3.0;;;2.0;;
45382;SDS011;42455;51.660;5.824;2023-06-14T20:03:08;2.5;;;2.0;;
45382;SDS011;42455;51.660;5.824;2023-06-14T20:08:14;4.0;;;2.0;;
45382;SDS011;42455;51.660;5.824;2023-06-14T20:13:20;4.0;;;2.0;;
45382;SDS011;42455;51.660;5.824;2023-06-14T20:18:26;3.0;;;3.0;;
45382;SDS011;42455;51.660;5.824;2023-06-14T20:23:33;5.0;;;3.0;;
45382;SDS011;42455;51.660;5.824;2023-06-14T20:28:39;3.0;;;3.0;;
45382;SDS011;42455;51.660;5.824;2023-06-14T20:33:45;5.0;;;3.0;;
45382;SDS011;42455;51.660;5.824;2023-06-14T20:38:51;4.0;;;3.0;;
45382;SDS011;42455;51.660;5.824;2023-06-14T20:43:57;3.0;;;2.0;;
45382;SDS011;42455;51.660;5.824;2023-06-14T20:49:04;3.0;;;2.0;;
45382;SDS011;42455;51.660;5.824;2023-06-14T20:54:10;3.0;;;2.0;;
45382;SDS011;42455;51.660;5.824;2023-06-14T20:59:16;4.0;;;2.0;;
45382;SDS011;42455;51.660;5.824;2023-06-14T21:04:22;3.0;;;3.0;;
45382;SDS011;42455;51.660;5.824;2023-06-14T21:09:28;2.5;;;2.0;;
45382;SDS011;42455;51.660;5.824;2023-06-14T21:14:35;3.0;;;2.0;;
45382;SDS011;42455;51.660;5.824;2023-06-14T21:19:41;3.0;;;2.0;;
45382;SDS011;42455;51.660;5.824;2023-06-14T21:24:47;5.0;;;2.0;;
45382;SDS011;42455;51.660;5.824;2023-06-14T21:29:53;4.0;;;2.0;;
45382;SDS011;42455;51.660;5.824;2023-06-14T21:34:59;3.0;;;3.0;;
45382;SDS011;42455;51.660;5.824;2023-06-14T21:40:06;3.0;;;3.0;;
45382;SDS011;42455;51.660;5.824;2023-06-14T21:45:12;3.0;;;2.0;;
45382;SDS011;42455;51.660;5.824;2023-06-14T21:50:18;3.0;;;2.0;;
45382;SDS011;42455;51.660;5.824;2023-06-14T21:55:24;3.0;;;2.0;;
45382;SDS011;42455;51.660;5.824;2023-06-14T22:00:31;4.0;;;3.0;;
45382;SDS011;42455;51.660;5.824;2023-06-14T22:05:37;4.0;;;3.0;;
45382;SDS011;42455;51.660;5.824;2023-06-14T22:10:43;4.0;;;3.0;;
45382;SDS011;42455;51.660;5.824;2023-06-14T22:15:49;3.0;;;3.0;;
45382;SDS011;42455;51.660;5.824;2023-06-14T22:20:55;3.0;;;3.0;;
45382;SDS011;42455;51.660;5.824;2023-06-14T22:26:01;3.0;;;3.0;;
45382;SDS011;42455;51.660;5.824;2023-06-14T22:31:08;4.0;;;3.0;;
45382;SDS011;42455;51.660;5.824;2023-06-14T22:36:14;3.0;;;3.0;;
45382;SDS011;42455;51.660;5.824;2023-06-14T22:41:20;4.0;;;3.0;;
45382;SDS011;42455;51.660;5.824;2023-06-14T22:46:26;4.0;;;3.0;;
45382;SDS011;42455;51.660;5.824;2023-06-14T22:51:33;4.0;;;3.0;;
45382;SDS011;42455;51.660;5.824;2023-06-14T22:56:39;4.0;;;3.0;;
45382;SDS011;42455;51.660;5.824;2023-06-14T23:01:45;4.0;;;3.0;;
45382;SDS011;42455;51.660;5.824;2023-06-14T23:06:50;6.0;;;4.0;;
45382;SDS011;42455;51.660;5.824;2023-06-14T23:11:56;4.0;;;3.0;;
45382;SDS011;42455;51.660;5.824;2023-06-14T23:17:03;4.0;;;4.0;;
45382;SDS011;42455;51.660;5.824;2023-06-14T23:22:09;5.0;;;4.0;;
45382;SDS011;42455;51.660;5.824;2023-06-14T23:27:15;4.0;;;4.0;;
45382;SDS011;42455;51.660;5.824;2023-06-14T23:37:28;4.0;;;4.0;;
45382;SDS011;42455;51.660;5.824;2023-06-14T23:42:34;4.0;;;4.0;;
45382;SDS011;42455;51.660;5.824;2023-06-14T23:47:40;4.0;;;4.0;;
45382;SDS011;42455;51.660;5.824;2023-06-14T23:52:46;4.0;;;4.0;;
45382;SDS011;42455;51.660;5.824;2023-06-14T23:57:52;6.0;;;4.0;;
